sensor_id;sensor_type;location;lat;lon;timestamp;P1;durP1;ratioP1;P2;durP2;ratioP2
16866;SDS011;8550;52.596;13.320;2023-02-19T00:02:57;0.40;;;0.20;;
16866;SDS011;8550;52.596;13.320;2023-02-19T00:08:01;0.30;;;0.10;;
16866;SDS011;8550;52.596;13.320;2023-02-19T00:13:03;0.30;;;0.10;;
16866;SDS011;8550;52.596;13.320;2023-02-19T00:18:05;0.30;;;0.20;;
16866;SDS011;8550;52.596;13.320;2023-02-19T00:23:10;0.43;;;0.20;;
16866;SDS011;8550;52.596;13.320;2023-02-19T00:28:12;0.20;;;0.10;;
16866;SDS011;8550;52.596;13.320;2023-02-19T00:33:15;0.38;;;0.20;;
16866;SDS011;8550;52.596;13.320;2023-02-19T00:38:19;0.33;;;0.20;;
16866;SDS011;8550;52.596;13.320;2023-02-19T00:43:21;0.20;;;0.10;;
16866;SDS011;8550;52.596;13.320;2023-02-19T00:48:24;0.40;;;0.30;;
16866;SDS011;8550;52.596;13.320;2023-02-19T00:53:28;0.40;;;0.20;;
16866;SDS011;8550;52.596;13.320;2023-02-19T00:58:30;0.23;;;0.10;;
16866;SDS011;8550;52.596;13.320;2023-02-19T01:03:32;0.30;;;0.10;;
16866;SDS011;8550;52.596;13.320;2023-02-19T01:08:36;0.40;;;0.20;;
16866;SDS011;8550;52.596;13.320;2023-02-19T01:13:38;0.30;;;0.10;;
16866;SDS011;8550;52.596;13.320;2023-02-19T01:18:41;0.30;;;0.17;;
16866;SDS011;8550;52.596;13.320;2023-02-19T01:23:45;0.30;;;0.10;;
16866;SDS011;8550;52.596;13.320;2023-02-19T01:28:48;0.40;;;0.20;;
16866;SDS011;8550;52.596;13.320;2023-02-19T01:33:51;0.50;;;0.20;;
16866;SDS011;8550;52.596;13.320;2023-02-19T01:38:58;0.40;;;0.20;;
16866;SDS011;8550;52.596;13.320;2023-02-19T01:44:03;0.38;;;0.20;;
16866;SDS011;8550;52.596;13.320;2023-02-19T01:49:09;0.40;;;0.20;;
16866;SDS011;8550;52.596;13.320;2023-02-19T01:54:16;0.40;;;0.20;;
16866;SDS011;8550;52.596;13.320;2023-02-19T01:59:21;0.20;;;0.10;;
16866;SDS011;8550;52.596;13.320;2023-02-19T02:04:24;0.40;;;0.20;;
16866;SDS011;8550;52.596;13.320;2023-02-19T02:09:29;0.30;;;0.10;;
16866;SDS011;8550;52.596;13.320;2023-02-19T02:14:50;0.40;;;0.20;;
16866;SDS011;8550;52.596;13.320;2023-02-19T02:20:03;0.30;;;0.10;;
16866;SDS011;8550;52.596;13.320;2023-02-19T02:25:29;0.43;;;0.20;;
16866;SDS011;8550;52.596;13.320;2023-02-19T02:30:42;0.32;;;0.20;;
16866;SDS011;8550;52.596;13.320;2023-02-19T02:35:48;0.32;;;0.20;;
16866;SDS011;8550;52.596;13.320;2023-02-19T02:40:58;0.20;;;0.10;;
16866;SDS011;8550;52.596;13.320;2023-02-19T02:46:03;0.30;;;0.10;;
16866;SDS011;8550;52.596;13.320;2023-02-19T02:51:08;0.22;;;0.10;;
16866;SDS011;8550;52.596;13.320;2023-02-19T02:56:16;0.20;;;0.10;;
16866;SDS011;8550;52.596;13.320;2023-02-19T03:01:23;0.82;;;0.82;;
16866;SDS011;8550;52.596;13.320;2023-02-19T03:06:47;0.28;;;0.10;;
16866;SDS011;8550;52.596;13.320;2023-02-19T03:11:53;0.30;;;0.10;;
16866;SDS011;8550;52.596;13.320;2023-02-19T03:17:17;0.40;;;0.20;;
16866;SDS011;8550;52.596;13.320;2023-02-19T03:22:42;0.30;;;0.13;;
16866;SDS011;8550;52.596;13.320;2023-02-19T03:27:48;0.22;;;0.10;;
16866;SDS011;8550;52.596;13.320;2023-02-19T03:32:53;0.20;;;0.10;;
16866;SDS011;8550;52.596;13.320;2023-02-19T03:38:01;0.38;;;0.20;;
16866;SDS011;8550;52.596;13.320;2023-02-19T03:43:13;0.30;;;0.10;;
16866;SDS011;8550;52.596;13.320;2023-02-19T03:48:28;0.23;;;0.10;;
16866;SDS011;8550;52.596;13.320;2023-02-19T03:53:34;0.20;;;0.10;;
16866;SDS011;8550;52.596;13.320;2023-02-19T03:58:48;0.30;;;0.10;;
16866;SDS011;8550;52.596;13.320;2023-02-19T04:03:58;0.20;;;0.10;;
16866;SDS011;8550;52.596;13.320;2023-02-19T04:09:05;0.30;;;0.17;;
16866;SDS011;8550;52.596;13.320;2023-02-19T04:14:11;0.35;;;0.20;;
16866;SDS011;8550;52.596;13.320;2023-02-19T04:19:21;0.20;;;0.10;;
16866;SDS011;8550;52.596;13.320;2023-02-19T04:24:27;0.30;;;0.20;;
16866;SDS011;8550;52.596;13.320;2023-02-19T04:29:34;0.17;;;0.08;;
16866;SDS011;8550;52.596;13.320;2023-02-19T04:34:37;0.20;;;0.10;;
16866;SDS011;8550;52.596;13.320;2023-02-19T04:39:39;0.30;;;0.20;;
16866;SDS011;8550;52.596;13.320;2023-02-19T04:44:41;0.28;;;0.10;;
16866;SDS011;8550;52.596;13.320;2023-02-19T04:49:45;0.30;;;0.10;;
16866;SDS011;8550;52.596;13.320;2023-02-19T04:54:47;0.20;;;0.10;;
16866;SDS011;8550;52.596;13.320;2023-02-19T04:59:49;0.40;;;0.20;;
16866;SDS011;8550;52.596;13.320;2023-02-19T05:04:52;0.32;;;0.10;;
16866;SDS011;8550;52.596;13.320;2023-02-19T05:10:01;0.32;;;0.20;;
16866;SDS011;8550;52.596;13.320;2023-02-19T05:15:15;0.27;;;0.10;;
16866;SDS011;8550;52.596;13.320;2023-02-19T05:20:28;0.40;;;0.20;;
16866;SDS011;8550;52.596;13.320;2023-02-19T05:25:32;0.20;;;0.10;;
16866;SDS011;8550;52.596;13.320;2023-02-19T05:35:51;0.20;;;0.10;;
16866;SDS011;8550;52.596;13.320;2023-02-19T05:40:55;0.22;;;0.10;;
16866;SDS011;8550;52.596;13.320;2023-02-19T05:46:21;0.30;;;0.10;;
16866;SDS011;8550;52.596;13.320;2023-02-19T05:51:32;0.10;;;0.00;;
16866;SDS011;8550;52.596;13.320;2023-02-19T05:56:37;0.43;;;0.20;;
16866;SDS011;8550;52.596;13.320;2023-02-19T06:01:40;0.20;;;0.10;;
16866;SDS011;8550;52.596;13.320;2023-02-19T06:06:50;0.17;;;0.07;;
16866;SDS011;8550;52.596;13.320;2023-02-19T06:11:54;0.30;;;0.10;;
16866;SDS011;8550;52.596;13.320;2023-02-19T06:16:57;0.20;;;0.10;;
16866;SDS011;8550;52.596;13.320;2023-02-19T06:22:00;0.20;;;0.10;;
16866;SDS011;8550;52.596;13.320;2023-02-19T06:27:09;0.25;;;0.10;;
16866;SDS011;8550;52.596;13.320;2023-02-19T06:32:11;0.20;;;0.10;;
16866;SDS011;8550;52.596;13.320;2023-02-19T06:37:16;0.20;;;0.10;;
16866;SDS011;8550;52.596;13.320;2023-02-19T06:42:18;0.50;;;0.30;;
16866;SDS011;8550;52.596;13.320;2023-02-19T06:47:20;0.20;;;0.10;;
16866;SDS011;8550;52.596;13.320;2023-02-19T06:52:23;0.30;;;0.20;;
16866;SDS011;8550;52.596;13.320;2023-02-19T06:57:27;0.20;;;0.10;;
16866;SDS011;8550;52.596;13.320;2023-02-19T07:02:29;0.20;;;0.10;;
16866;SDS011;8550;52.596;13.320;2023-02-19T07:07:48;0.20;;;0.10;;
16866;SDS011;8550;52.596;13.320;2023-02-19T07:18:15;0.30;;;0.10;;
16866;SDS011;8550;52.596;13.320;2023-02-19T07:23:19;0.28;;;0.10;;
16866;SDS011;8550;52.596;13.320;2023-02-19T07:28:22;0.30;;;0.10;;
16866;SDS011;8550;52.596;13.320;2023-02-19T07:33:24;0.20;;;0.10;;
16866;SDS011;8550;52.596;13.320;2023-02-19T07:38:30;0.38;;;0.20;;
16866;SDS011;8550;52.596;13.320;2023-02-19T07:43:33;0.40;;;0.20;;
16866;SDS011;8550;52.596;13.320;2023-02-19T07:48:37;0.20;;;0.10;;
16866;SDS011;8550;52.596;13.320;2023-02-19T07:53:41;0.20;;;0.10;;
16866;SDS011;8550;52.596;13.320;2023-02-19T07:58:44;0.40;;;0.20;;
16866;SDS011;8550;52.596;13.320;2023-02-19T08:03:46;0.30;;;0.20;;
16866;SDS011;8550;52.596;13.320;2023-02-19T08:08:49;0.20;;;0.10;;
16866;SDS011;8550;52.596;13.320;2023-02-19T08:13:51;0.20;;;0.10;;
16866;SDS011;8550;52.596;13.320;2023-02-19T08:18:53;0.40;;;0.20;;
16866;SDS011;8550;52.596;13.320;2023-02-19T08:23:56;0.20;;;0.10;;
16866;SDS011;8550;52.596;13.320;2023-02-19T08:28:58;0.40;;;0.20;;
16866;SDS011;8550;52.596;13.320;2023-02-19T08:34:00;0.40;;;0.20;;
16866;SDS011;8550;52.596;13.320;2023-02-19T08:39:04;0.20;;;0.10;;
16866;SDS011;8550;52.596;13.320;2023-02-19T08:44:06;0.20;;;0.10;;
16866;SDS011;8550;52.596;13.320;2023-02-19T08:49:07;0.20;;;0.10;;
16866;SDS011;8550;52.596;13.320;2023-02-19T08:54:11;0.30;;;0.10;;
16866;SDS011;8550;52.596;13.320;2023-02-19T08:59:13;0.30;;;0.10;;
16866;SDS011;8550;52.596;13.320;2023-02-19T09:04:15;0.32;;;0.20;;
16866;SDS011;8550;52.596;13.320;2023-02-19T09:09:18;0.40;;;0.20;;
16866;SDS011;8550;52.596;13.320;2023-02-19T09:14:20;0.40;;;0.20;;
16866;SDS011;8550;52.596;13.320;2023-02-19T09:19:22;0.30;;;0.10;;
16866;SDS011;8550;52.596;13.320;2023-02-19T09:24:27;0.45;;;0.20;;
16866;SDS011;8550;52.596;13.320;2023-02-19T09:29:30;0.30;;;0.10;;
16866;SDS011;8550;52.596;13.320;2023-02-19T09:34:33;0.40;;;0.20;;
16866;SDS011;8550;52.596;13.320;2023-02-19T09:39:36;0.20;;;0.10;;
16866;SDS011;8550;52.596;13.320;2023-02-19T09:44:39;0.40;;;0.20;;
16866;SDS011;8550;52.596;13.320;2023-02-19T09:49:43;0.20;;;0.10;;
16866;SDS011;8550;52.596;13.320;2023-02-19T09:54:52;0.20;;;0.10;;
16866;SDS011;8550;52.596;13.320;2023-02-19T10:00:03;0.20;;;0.10;;
16866;SDS011;8550;52.596;13.320;2023-02-19T10:05:08;0.23;;;0.10;;
16866;SDS011;8550;52.596;13.320;2023-02-19T10:10:20;0.28;;;0.10;;
16866;SDS011;8550;52.596;13.320;2023-02-19T10:15:28;0.50;;;0.25;;
16866;SDS011;8550;52.596;13.320;2023-02-19T10:20:33;0.30;;;0.13;;
16866;SDS011;8550;52.596;13.320;2023-02-19T10:25:38;1.40;;;1.30;;
16866;SDS011;8550;52.596;13.320;2023-02-19T10:30:44;0.20;;;0.10;;
16866;SDS011;8550;52.596;13.320;2023-02-19T10:35:52;0.40;;;0.20;;
16866;SDS011;8550;52.596;13.320;2023-02-19T10:40:59;0.20;;;0.10;;
16866;SDS011;8550;52.596;13.320;2023-02-19T10:46:05;0.40;;;0.20;;
16866;SDS011;8550;52.596;13.320;2023-02-19T10:51:14;0.37;;;0.20;;
16866;SDS011;8550;52.596;13.320;2023-02-19T10:56:23;0.40;;;0.20;;
16866;SDS011;8550;52.596;13.320;2023-02-19T11:01:26;0.28;;;0.10;;
16866;SDS011;8550;52.596;13.320;2023-02-19T11:06:28;0.40;;;0.20;;
16866;SDS011;8550;52.596;13.320;2023-02-19T11:11:32;0.20;;;0.10;;
16866;SDS011;8550;52.596;13.320;2023-02-19T11:16:37;0.32;;;0.20;;
16866;SDS011;8550;52.596;13.320;2023-02-19T11:21:42;0.30;;;0.10;;
16866;SDS011;8550;52.596;13.320;2023-02-19T11:26:45;0.40;;;0.20;;
16866;SDS011;8550;52.596;13.320;2023-02-19T11:31:47;0.28;;;0.10;;
16866;SDS011;8550;52.596;13.320;2023-02-19T11:36:52;4.45;;;0.73;;
16866;SDS011;8550;52.596;13.320;2023-02-19T11:42:16;1.13;;;0.60;;
16866;SDS011;8550;52.596;13.320;2023-02-19T11:47:41;0.43;;;0.20;;
16866;SDS011;8550;52.596;13.320;2023-02-19T11:53:03;0.70;;;0.30;;
16866;SDS011;8550;52.596;13.320;2023-02-19T11:58:24;1.70;;;0.60;;
16866;SDS011;8550;52.596;13.320;2023-02-19T12:03:56;7.53;;;1.17;;
16866;SDS011;8550;52.596;13.320;2023-02-19T12:09:21;1.80;;;0.60;;
16866;SDS011;8550;52.596;13.320;2023-02-19T12:14:43;2.53;;;0.45;;
16866;SDS011;8550;52.596;13.320;2023-02-19T12:20:02;5.93;;;0.50;;
16866;SDS011;8550;52.596;13.320;2023-02-19T12:25:20;0.60;;;0.20;;
16866;SDS011;8550;52.596;13.320;2023-02-19T12:30:43;1.52;;;0.60;;
16866;SDS011;8550;52.596;13.320;2023-02-19T12:36:02;2.87;;;0.37;;
16866;SDS011;8550;52.596;13.320;2023-02-19T12:41:22;0.87;;;0.10;;
16866;SDS011;8550;52.596;13.320;2023-02-19T12:46:34;1.13;;;0.52;;
16866;SDS011;8550;52.596;13.320;2023-02-19T12:51:40;4.68;;;0.40;;
16866;SDS011;8550;52.596;13.320;2023-02-19T12:56:46;0.87;;;0.50;;
16866;SDS011;8550;52.596;13.320;2023-02-19T13:01:55;0.75;;;0.20;;
16866;SDS011;8550;52.596;13.320;2023-02-19T13:07:01;0.50;;;0.20;;
16866;SDS011;8550;52.596;13.320;2023-02-19T13:12:10;1.07;;;0.33;;
16866;SDS011;8550;52.596;13.320;2023-02-19T13:17:21;2.03;;;0.45;;
16866;SDS011;8550;52.596;13.320;2023-02-19T13:22:29;1.08;;;0.50;;
16866;SDS011;8550;52.596;13.320;2023-02-19T13:33:13;0.40;;;0.20;;
16866;SDS011;8550;52.596;13.320;2023-02-19T13:38:32;1.25;;;0.20;;
16866;SDS011;8550;52.596;13.320;2023-02-19T13:43:37;1.05;;;0.20;;
16866;SDS011;8550;52.596;13.320;2023-02-19T13:48:43;0.63;;;0.23;;
16866;SDS011;8550;52.596;13.320;2023-02-19T13:53:54;1.75;;;0.50;;
16866;SDS011;8550;52.596;13.320;2023-02-19T13:59:11;1.58;;;0.28;;
16866;SDS011;8550;52.596;13.320;2023-02-19T14:04:41;0.83;;;0.20;;
16866;SDS011;8550;52.596;13.320;2023-02-19T14:09:53;2.15;;;0.32;;
16866;SDS011;8550;52.596;13.320;2023-02-19T14:14:57;1.40;;;0.60;;
16866;SDS011;8550;52.596;13.320;2023-02-19T14:20:42;0.53;;;0.30;;
16866;SDS011;8550;52.596;13.320;2023-02-19T14:25:53;0.97;;;0.10;;
16866;SDS011;8550;52.596;13.320;2023-02-19T14:30:59;0.65;;;0.22;;
16866;SDS011;8550;52.596;13.320;2023-02-19T14:36:19;6.55;;;0.60;;
16866;SDS011;8550;52.596;13.320;2023-02-19T14:41:30;1.53;;;0.50;;
16866;SDS011;8550;52.596;13.320;2023-02-19T14:46:55;1.05;;;0.40;;
16866;SDS011;8550;52.596;13.320;2023-02-19T14:52:02;2.38;;;0.40;;
16866;SDS011;8550;52.596;13.320;2023-02-19T14:57:10;2.43;;;0.67;;
16866;SDS011;8550;52.596;13.320;2023-02-19T15:02:15;2.10;;;0.63;;
16866;SDS011;8550;52.596;13.320;2023-02-19T15:07:21;3.35;;;0.38;;
16866;SDS011;8550;52.596;13.320;2023-02-19T15:12:29;5.43;;;0.63;;
16866;SDS011;8550;52.596;13.320;2023-02-19T15:17:51;1.93;;;0.40;;
16866;SDS011;8550;52.596;13.320;2023-02-19T15:22:55;2.72;;;0.57;;
16866;SDS011;8550;52.596;13.320;2023-02-19T15:33:19;2.53;;;0.53;;
16866;SDS011;8550;52.596;13.320;2023-02-19T15:38:22;1.25;;;0.40;;
16866;SDS011;8550;52.596;13.320;2023-02-19T15:43:26;0.82;;;0.22;;
16866;SDS011;8550;52.596;13.320;2023-02-19T15:48:31;0.53;;;0.20;;
16866;SDS011;8550;52.596;13.320;2023-02-19T15:53:41;0.82;;;0.20;;
16866;SDS011;8550;52.596;13.320;2023-02-19T15:58:48;0.45;;;0.15;;
16866;SDS011;8550;52.596;13.320;2023-02-19T16:03:53;3.33;;;1.03;;
16866;SDS011;8550;52.596;13.320;2023-02-19T16:09:00;2.97;;;0.37;;
16866;SDS011;8550;52.596;13.320;2023-02-19T16:14:17;0.88;;;0.50;;
16866;SDS011;8550;52.596;13.320;2023-02-19T16:19:24;0.82;;;0.40;;
16866;SDS011;8550;52.596;13.320;2023-02-19T16:24:30;6.87;;;0.83;;
16866;SDS011;8550;52.596;13.320;2023-02-19T16:29:35;1.75;;;0.30;;
16866;SDS011;8550;52.596;13.320;2023-02-19T16:34:38;3.40;;;0.30;;
16866;SDS011;8550;52.596;13.320;2023-02-19T16:39:43;0.80;;;0.30;;
16866;SDS011;8550;52.596;13.320;2023-02-19T16:44:48;2.80;;;0.50;;
16866;SDS011;8550;52.596;13.320;2023-02-19T16:49:50;6.10;;;0.65;;
16866;SDS011;8550;52.596;13.320;2023-02-19T16:54:53;1.93;;;0.53;;
16866;SDS011;8550;52.596;13.320;2023-02-19T16:59:55;2.27;;;0.90;;
16866;SDS011;8550;52.596;13.320;2023-02-19T17:04:57;2.35;;;0.90;;
16866;SDS011;8550;52.596;13.320;2023-02-19T17:10:00;3.28;;;1.00;;
16866;SDS011;8550;52.596;13.320;2023-02-19T17:15:02;3.37;;;1.00;;
16866;SDS011;8550;52.596;13.320;2023-02-19T17:20:09;5.82;;;1.50;;
16866;SDS011;8550;52.596;13.320;2023-02-19T17:25:22;7.10;;;1.73;;
16866;SDS011;8550;52.596;13.320;2023-02-19T17:30:25;4.33;;;1.77;;
16866;SDS011;8550;52.596;13.320;2023-02-19T17:35:29;7.00;;;2.20;;
16866;SDS011;8550;52.596;13.320;2023-02-19T17:40:32;5.63;;;1.75;;
16866;SDS011;8550;52.596;13.320;2023-02-19T17:45:34;4.87;;;1.87;;
16866;SDS011;8550;52.596;13.320;2023-02-19T17:50:36;3.10;;;1.13;;
16866;SDS011;8550;52.596;13.320;2023-02-19T17:55:39;5.82;;;1.90;;
16866;SDS011;8550;52.596;13.320;2023-02-19T18:00:41;4.70;;;1.95;;
16866;SDS011;8550;52.596;13.320;2023-02-19T18:05:43;3.23;;;1.20;;
16866;SDS011;8550;52.596;13.320;2023-02-19T18:10:48;5.20;;;1.75;;
16866;SDS011;8550;52.596;13.320;2023-02-19T18:15:51;3.97;;;1.70;;
16866;SDS011;8550;52.596;13.320;2023-02-19T18:20:53;5.60;;;1.10;;
16866;SDS011;8550;52.596;13.320;2023-02-19T18:25:56;3.85;;;1.73;;
16866;SDS011;8550;52.596;13.320;2023-02-19T18:30:58;3.92;;;1.50;;
16866;SDS011;8550;52.596;13.320;2023-02-19T18:36:00;8.93;;;1.40;;
16866;SDS011;8550;52.596;13.320;2023-02-19T18:41:11;8.60;;;1.40;;
16866;SDS011;8550;52.596;13.320;2023-02-19T18:46:25;3.72;;;1.73;;
16866;SDS011;8550;52.596;13.320;2023-02-19T18:51:27;4.85;;;2.42;;
16866;SDS011;8550;52.596;13.320;2023-02-19T18:56:45;5.30;;;1.63;;
16866;SDS011;8550;52.596;13.320;2023-02-19T19:02:07;3.67;;;1.25;;
16866;SDS011;8550;52.596;13.320;2023-02-19T19:07:27;2.67;;;1.08;;
16866;SDS011;8550;52.596;13.320;2023-02-19T19:12:30;4.13;;;1.23;;
16866;SDS011;8550;52.596;13.320;2023-02-19T19:17:32;3.78;;;1.40;;
16866;SDS011;8550;52.596;13.320;2023-02-19T19:22:34;2.35;;;1.05;;
16866;SDS011;8550;52.596;13.320;2023-02-19T19:27:37;2.83;;;1.07;;
16866;SDS011;8550;52.596;13.320;2023-02-19T19:32:39;5.77;;;1.40;;
16866;SDS011;8550;52.596;13.320;2023-02-19T19:37:41;3.35;;;1.13;;
16866;SDS011;8550;52.596;13.320;2023-02-19T19:42:44;3.80;;;1.58;;
16866;SDS011;8550;52.596;13.320;2023-02-19T19:47:46;3.10;;;1.10;;
16866;SDS011;8550;52.596;13.320;2023-02-19T19:52:48;3.15;;;1.13;;
16866;SDS011;8550;52.596;13.320;2023-02-19T19:57:52;4.10;;;1.25;;
16866;SDS011;8550;52.596;13.320;2023-02-19T20:02:54;2.53;;;0.77;;
16866;SDS011;8550;52.596;13.320;2023-02-19T20:07:56;3.53;;;1.00;;
16866;SDS011;8550;52.596;13.320;2023-02-19T20:12:59;2.72;;;0.88;;
16866;SDS011;8550;52.596;13.320;2023-02-19T20:18:02;11.27;;;0.93;;
16866;SDS011;8550;52.596;13.320;2023-02-19T20:23:04;4.80;;;1.87;;
16866;SDS011;8550;52.596;13.320;2023-02-19T20:28:07;7.15;;;1.27;;
16866;SDS011;8550;52.596;13.320;2023-02-19T20:33:09;2.75;;;0.80;;
16866;SDS011;8550;52.596;13.320;2023-02-19T20:38:12;4.27;;;0.90;;
16866;SDS011;8550;52.596;13.320;2023-02-19T20:43:16;2.83;;;0.55;;
16866;SDS011;8550;52.596;13.320;2023-02-19T20:48:18;7.60;;;0.60;;
16866;SDS011;8550;52.596;13.320;2023-02-19T20:53:20;1.80;;;0.70;;
16866;SDS011;8550;52.596;13.320;2023-02-19T20:58:23;4.60;;;0.63;;
16866;SDS011;8550;52.596;13.320;2023-02-19T21:03:26;2.03;;;0.90;;
16866;SDS011;8550;52.596;13.320;2023-02-19T21:08:28;1.23;;;0.50;;
16866;SDS011;8550;52.596;13.320;2023-02-19T21:13:31;2.67;;;0.90;;
16866;SDS011;8550;52.596;13.320;2023-02-19T21:18:34;10.20;;;1.48;;
16866;SDS011;8550;52.596;13.320;2023-02-19T21:23:36;3.40;;;0.90;;
16866;SDS011;8550;52.596;13.320;2023-02-19T21:28:39;1.27;;;0.47;;
16866;SDS011;8550;52.596;13.320;2023-02-19T21:33:41;2.38;;;1.13;;
16866;SDS011;8550;52.596;13.320;2023-02-19T21:38:43;5.20;;;1.90;;
16866;SDS011;8550;52.596;13.320;2023-02-19T21:43:46;4.93;;;1.30;;
16866;SDS011;8550;52.596;13.320;2023-02-19T21:48:48;6.90;;;0.55;;
16866;SDS011;8550;52.596;13.320;2023-02-19T21:53:50;3.22;;;0.80;;
16866;SDS011;8550;52.596;13.320;2023-02-19T21:58:53;3.30;;;0.73;;
16866;SDS011;8550;52.596;13.320;2023-02-19T22:03:55;2.13;;;0.70;;
16866;SDS011;8550;52.596;13.320;2023-02-19T22:08:58;1.63;;;0.70;;
16866;SDS011;8550;52.596;13.320;2023-02-19T22:14:01;2.00;;;0.40;;
16866;SDS011;8550;52.596;13.320;2023-02-19T22:19:04;11.83;;;0.63;;
16866;SDS011;8550;52.596;13.320;2023-02-19T22:24:06;2.00;;;0.95;;
16866;SDS011;8550;52.596;13.320;2023-02-19T22:29:16;2.35;;;0.43;;
16866;SDS011;8550;52.596;13.320;2023-02-19T22:34:18;4.43;;;1.13;;
16866;SDS011;8550;52.596;13.320;2023-02-19T22:39:20;1.67;;;0.63;;
16866;SDS011;8550;52.596;13.320;2023-02-19T22:44:26;6.15;;;0.88;;
16866;SDS011;8550;52.596;13.320;2023-02-19T22:49:28;1.63;;;0.70;;
16866;SDS011;8550;52.596;13.320;2023-02-19T22:54:30;2.10;;;0.60;;
16866;SDS011;8550;52.596;13.320;2023-02-19T22:59:33;0.85;;;0.45;;
16866;SDS011;8550;52.596;13.320;2023-02-19T23:04:35;4.32;;;1.42;;
16866;SDS011;8550;52.596;13.320;2023-02-19T23:09:37;6.73;;;2.00;;
16866;SDS011;8550;52.596;13.320;2023-02-19T23:14:40;2.70;;;0.68;;
16866;SDS011;8550;52.596;13.320;2023-02-19T23:19:42;1.58;;;0.60;;
16866;SDS011;8550;52.596;13.320;2023-02-19T23:24:44;3.33;;;0.63;;
16866;SDS011;8550;52.596;13.320;2023-02-19T23:29:47;1.67;;;0.60;;
16866;SDS011;8550;52.596;13.320;2023-02-19T23:34:49;6.28;;;1.15;;
16866;SDS011;8550;52.596;13.320;2023-02-19T23:39:51;2.07;;;0.50;;
16866;SDS011;8550;52.596;13.320;2023-02-19T23:44:54;1.43;;;0.50;;
16866;SDS011;8550;52.596;13.320;2023-02-19T23:49:56;1.02;;;0.40;;
16866;SDS011;8550;52.596;13.320;2023-02-19T23:54:58;2.08;;;0.90;;
